createdAt,value
2018-09-19T00:01:37.045Z,31.50
2018-09-19T00:04:41.035Z,28.67
2018-09-19T00:07:44.569Z,34.20
2018-09-19T00:10:48.204Z,31.10
2018-09-19T00:13:51.734Z,34.50
2018-09-19T00:16:55.944Z,24.93
2018-09-19T00:20:01.387Z,28.77
2018-09-19T00:23:05.008Z,25.13
2018-09-19T00:26:10.256Z,26.20
2018-09-19T00:29:14.109Z,27.27
2018-09-19T00:32:18.847Z,31.77
2018-09-19T00:35:22.696Z,28.13
2018-09-19T00:38:26.664Z,18.60
2018-09-19T00:41:30.373Z,20.30
2018-09-19T00:44:35.771Z,35.10
2018-09-19T00:47:40.611Z,27.20
2018-09-19T00:50:44.206Z,33.00
2018-09-19T00:53:48.686Z,30.43
2018-09-19T00:56:52.197Z,28.63
2018-09-19T00:59:56.105Z,27.40
2018-09-19T01:03:00.598Z,25.90
2018-09-19T01:06:05.375Z,30.13
2018-09-19T01:09:10.020Z,29.83
2018-09-19T01:12:14.136Z,25.93
2018-09-19T01:15:17.952Z,24.77
2018-09-19T01:18:22.074Z,32.77
2018-09-19T01:21:25.838Z,27.07
2018-09-19T01:24:30.117Z,29.23
2018-09-19T01:27:33.823Z,26.63
2018-09-19T01:30:37.709Z,24.90
2018-09-19T01:33:41.435Z,26.40
2018-09-19T01:36:44.903Z,26.27
2018-09-19T01:39:48.802Z,29.77
2018-09-19T01:42:53.067Z,27.37
2018-09-19T01:45:56.719Z,32.43
2018-09-19T01:49:00.441Z,27.53
2018-09-19T01:52:08.657Z,24.67
2018-09-19T01:55:12.569Z,30.93
2018-09-19T01:58:18.186Z,26.73
2018-09-19T02:01:22.826Z,34.30
2018-09-19T02:04:27.028Z,26.20
2018-09-19T02:07:30.640Z,28.80
2018-09-19T02:10:34.813Z,32.70
2018-09-19T02:13:39.030Z,34.17
2018-09-19T02:16:43.449Z,25.80
2018-09-19T02:19:47.800Z,25.23
2018-09-19T02:22:51.661Z,28.13
2018-09-19T02:25:55.156Z,34.83
2018-09-19T02:28:58.891Z,26.90
2018-09-19T02:32:03.070Z,24.87
2018-09-19T02:35:07.127Z,23.90
2018-09-19T02:38:11.692Z,31.30
2018-09-19T02:41:16.811Z,31.23
2018-09-19T02:44:21.731Z,31.23
2018-09-19T02:47:25.740Z,31.03
2018-09-19T02:50:29.470Z,30.83
2018-09-19T02:53:33.382Z,36.07
2018-09-19T02:56:36.771Z,24.10
2018-09-19T02:59:40.395Z,30.73
2018-09-19T03:02:44.457Z,32.87
2018-09-19T03:05:48.835Z,37.13
2018-09-19T03:08:52.449Z,25.90
2018-09-19T03:11:56.298Z,42.50
2018-09-19T03:15:00.312Z,32.90
2018-09-19T03:18:04.349Z,31.33
2018-09-19T03:21:07.959Z,34.23
2018-09-19T03:24:11.865Z,34.53
2018-09-19T03:27:15.747Z,33.50
2018-09-19T03:30:18.887Z,27.33
2018-09-19T03:33:22.080Z,27.13
2018-09-19T03:36:25.155Z,27.33
2018-09-19T03:39:28.334Z,30.27
2018-09-19T03:42:31.431Z,36.57
2018-09-19T03:45:34.613Z,27.27
2018-09-19T03:48:37.676Z,35.93
2018-09-19T03:51:40.820Z,36.50
2018-09-19T03:54:43.911Z,42.10
2018-09-19T03:57:47.326Z,29.63
2018-09-19T04:00:50.431Z,29.43
2018-09-19T04:03:53.534Z,30.73
2018-09-19T04:06:56.621Z,31.00
2018-09-19T04:09:59.779Z,27.57
2018-09-19T04:13:03.403Z,30.53
2018-09-19T04:16:07.379Z,35.53
2018-09-19T04:19:11.542Z,35.77
2018-09-19T04:22:15.650Z,33.30
2018-09-19T04:25:19.006Z,25.60
2018-09-19T04:28:22.259Z,39.30
2018-09-19T04:31:25.387Z,31.63
2018-09-19T04:34:29.217Z,37.17
2018-09-19T04:37:33.197Z,34.27
2018-09-19T04:40:37.310Z,37.90
2018-09-19T04:43:40.470Z,38.37
2018-09-19T04:46:43.566Z,35.77
2018-09-19T04:49:46.839Z,40.10
2018-09-19T04:52:50.272Z,38.53
2018-09-19T04:55:53.462Z,34.90
2018-09-19T04:58:56.807Z,34.90
2018-09-19T05:01:59.949Z,29.80
2018-09-19T05:05:03.039Z,29.30
2018-09-19T05:08:06.428Z,31.40
2018-09-19T05:11:09.560Z,36.27
2018-09-19T05:14:12.698Z,44.37
2018-09-19T05:17:15.794Z,35.07
2018-09-19T05:20:18.894Z,29.77
2018-09-19T05:23:21.978Z,39.37
2018-09-19T05:26:25.143Z,38.73
2018-09-19T05:29:28.302Z,39.97
2018-09-19T05:32:31.392Z,34.03
2018-09-19T05:35:34.465Z,34.87
2018-09-19T05:38:37.547Z,44.40
2018-09-19T05:41:40.662Z,40.03
2018-09-19T05:44:43.739Z,37.17
2018-09-19T05:47:46.822Z,43.23
2018-09-19T05:50:49.902Z,39.33
2018-09-19T05:53:53.039Z,39.20
2018-09-19T05:56:56.174Z,28.90
2018-09-19T05:59:59.244Z,44.90
2018-09-19T06:03:02.348Z,35.30
2018-09-19T06:06:05.762Z,32.93
2018-09-19T06:09:09.950Z,41.50
2018-09-19T06:12:13.042Z,36.90
2018-09-19T06:15:16.147Z,36.40
2018-09-19T06:18:19.234Z,41.23
2018-09-19T06:21:22.315Z,38.60
2018-09-19T06:24:25.386Z,45.70
2018-09-19T06:27:28.525Z,41.80
2018-09-19T06:30:31.639Z,44.80
2018-09-19T06:33:34.794Z,40.00
2018-09-19T06:36:37.928Z,41.80
2018-09-19T06:39:41.007Z,36.63
2018-09-19T06:42:44.102Z,46.23
2018-09-19T06:45:47.236Z,41.40
2018-09-19T06:48:50.275Z,41.57
2018-09-19T06:51:53.402Z,38.73
2018-09-19T06:54:56.496Z,44.47
2018-09-19T06:57:59.620Z,40.03
2018-09-19T07:01:02.723Z,37.57
2018-09-19T07:04:06.002Z,43.97
2018-09-19T07:07:09.143Z,43.90
2018-09-19T07:10:12.219Z,30.33
2018-09-19T07:13:15.299Z,33.30
2018-09-19T07:16:18.377Z,30.07
2018-09-19T07:19:21.459Z,27.77
2018-09-19T07:22:24.539Z,29.60
2018-09-19T07:25:27.646Z,27.27
2018-09-19T07:28:30.760Z,28.93
2018-09-19T07:31:33.869Z,32.07
2018-09-19T07:34:37.012Z,30.53
2018-09-19T07:37:40.147Z,32.80
2018-09-19T07:40:43.207Z,29.67
2018-09-19T07:43:46.299Z,29.07
2018-09-19T07:46:49.432Z,27.97
2018-09-19T07:49:52.995Z,25.50
2018-09-19T07:52:56.143Z,23.60
2018-09-19T07:55:59.204Z,21.30
2018-09-19T07:59:02.299Z,25.47
2018-09-19T08:02:10.799Z,19.37
2018-09-19T08:05:13.885Z,20.63
2018-09-19T08:08:16.988Z,17.87
2018-09-19T08:11:20.051Z,22.57
2018-09-19T08:14:23.148Z,23.80
2018-09-19T08:17:26.218Z,16.07
2018-09-19T08:20:29.295Z,22.63
2018-09-19T08:23:32.382Z,21.37
2018-09-19T08:26:35.762Z,15.70
2018-09-19T08:29:38.950Z,19.07
2018-09-19T08:32:42.063Z,16.17
2018-09-19T08:35:45.172Z,15.50
2018-09-19T08:38:48.383Z,18.90
2018-09-19T08:41:51.491Z,17.57
2018-09-19T08:44:54.596Z,13.77
2018-09-19T08:47:57.789Z,16.60
2018-09-19T08:51:00.878Z,18.63
2018-09-19T08:54:04.098Z,16.73
2018-09-19T08:57:07.421Z,13.67
2018-09-19T09:00:10.943Z,20.50
2018-09-19T09:03:14.070Z,16.90
2018-09-19T09:06:17.252Z,17.43
2018-09-19T09:09:20.366Z,10.40
2018-09-19T09:12:23.525Z,15.33
2018-09-19T09:15:26.917Z,13.67
2018-09-19T09:18:30.219Z,11.60
2018-09-19T09:21:33.470Z,12.43
2018-09-19T09:24:37.066Z,8.47
2018-09-19T09:27:40.388Z,10.80
2018-09-19T09:30:43.643Z,11.83
2018-09-19T09:33:47.373Z,17.23
2018-09-19T09:36:50.906Z,9.47
2018-09-19T09:39:54.748Z,12.50
2018-09-19T09:42:58.175Z,13.17
2018-09-19T09:46:02.074Z,8.50
2018-09-19T09:49:06.174Z,13.03
2018-09-19T09:52:09.888Z,9.90
2018-09-19T09:55:13.524Z,9.97
2018-09-19T09:58:16.854Z,13.40
2018-09-19T10:01:20.195Z,6.97
2018-09-19T10:04:23.800Z,12.13
2018-09-19T10:07:27.031Z,10.40
2018-09-19T10:10:30.488Z,10.40
2018-09-19T10:13:33.966Z,8.40
2018-09-19T10:16:37.656Z,8.60
2018-09-19T10:19:41.138Z,10.30
2018-09-19T10:22:45.393Z,9.57
2018-09-19T10:25:48.923Z,7.87
2018-09-19T10:28:53.114Z,9.37
2018-09-19T10:31:56.847Z,9.07
2018-09-19T10:35:00.001Z,9.53
2018-09-19T10:38:03.604Z,10.50
2018-09-19T10:41:07.033Z,11.37
2018-09-19T10:44:10.633Z,10.30
2018-09-19T10:47:13.910Z,10.30
2018-09-19T10:50:17.386Z,11.03
2018-09-19T10:53:20.804Z,8.83
2018-09-19T10:56:24.784Z,11.27
2018-09-19T10:59:28.151Z,11.73
2018-09-19T11:02:31.812Z,11.50
2018-09-19T11:05:35.375Z,10.93
2018-09-19T11:08:39.397Z,12.60
2018-09-19T11:11:43.199Z,9.00
2018-09-19T11:14:46.506Z,8.17
2018-09-19T11:17:50.425Z,8.50
2018-09-19T11:20:53.939Z,10.73
2018-09-19T11:23:57.296Z,11.17
2018-09-19T11:27:00.562Z,9.30
2018-09-19T11:30:05.074Z,10.87
2018-09-19T11:33:09.453Z,11.97
2018-09-19T11:36:13.133Z,9.93
2018-09-19T11:39:16.767Z,9.90
2018-09-19T11:42:20.868Z,12.53
2018-09-19T11:45:25.184Z,15.77
2018-09-19T11:48:28.751Z,10.37
2018-09-19T11:51:32.515Z,9.40
2018-09-19T11:54:36.300Z,11.60
2018-09-19T11:57:40.767Z,10.57
2018-09-19T12:00:45.091Z,13.68
2018-09-19T12:03:48.906Z,12.43
2018-09-19T12:06:52.333Z,13.90
2018-09-19T12:09:55.874Z,10.75
2018-09-19T12:12:59.443Z,8.95
2018-09-19T12:16:02.730Z,8.98
2018-09-19T12:19:06.630Z,10.45
2018-09-19T12:22:09.964Z,9.68
2018-09-19T12:25:13.461Z,11.57
2018-09-19T12:28:16.904Z,8.73
2018-09-19T12:31:20.570Z,9.33
2018-09-19T12:34:24.325Z,9.90
2018-09-19T12:37:27.672Z,11.63
2018-09-19T12:40:31.037Z,8.65
2018-09-19T12:43:34.244Z,11.43
2018-09-19T12:46:37.673Z,12.70
2018-09-19T12:49:41.597Z,13.62
2018-09-19T12:52:45.323Z,13.25
2018-09-19T12:55:55.678Z,10.58
2018-09-19T12:58:59.471Z,5.75
2018-09-19T13:02:03.945Z,8.23
2018-09-19T13:05:07.658Z,7.72
2018-09-19T13:08:11.512Z,9.83
2018-09-19T13:11:15.198Z,8.78
2018-09-19T13:14:18.892Z,11.25
2018-09-19T13:17:23.092Z,11.05
2018-09-19T13:20:26.309Z,15.63
2018-09-19T13:23:29.949Z,10.35
2018-09-19T13:26:33.310Z,10.53
2018-09-19T13:29:36.822Z,12.25
2018-09-19T13:32:40.244Z,12.98
2018-09-19T13:35:43.591Z,10.50
2018-09-19T13:38:47.066Z,11.73
2018-09-19T13:41:50.652Z,11.65
2018-09-19T13:44:54.119Z,13.78
2018-09-19T13:47:57.324Z,14.07
2018-09-19T13:51:20.618Z,9.20
2018-09-19T13:54:24.339Z,9.60
2018-09-19T13:57:27.665Z,7.37
2018-09-19T14:00:31.996Z,11.38
2018-09-19T14:03:35.708Z,12.10
2018-09-19T14:06:39.240Z,13.43
2018-09-19T14:09:42.855Z,11.10
2018-09-19T14:12:46.689Z,7.83
2018-09-19T14:15:56.969Z,7.70
2018-09-19T14:19:00.178Z,8.03
2018-09-19T14:22:03.382Z,14.40
2018-09-19T14:25:06.944Z,12.10
2018-09-19T14:28:10.593Z,9.83
2018-09-19T14:31:14.253Z,9.90
2018-09-19T14:34:17.881Z,10.25
2018-09-19T14:37:21.141Z,8.35
2018-09-19T14:40:24.648Z,13.35
2018-09-19T14:43:28.203Z,10.95
2018-09-19T14:46:32.201Z,11.78
2018-09-19T14:49:35.684Z,10.72
2018-09-19T14:52:38.904Z,10.55
2018-09-19T14:55:43.032Z,14.25
2018-09-19T14:58:46.626Z,11.05
2018-09-19T15:01:50.213Z,11.88
2018-09-19T15:04:53.843Z,12.45
2018-09-19T15:50:46.811Z,16.40
2018-09-19T15:51:20.256Z,17.43
2018-09-19T15:54:50.825Z,19.53
2018-09-19T15:57:55.666Z,19.95
2018-09-19T16:01:00.466Z,22.30
2018-09-19T16:04:04.924Z,15.77
2018-09-19T16:07:09.305Z,12.73
2018-09-19T16:10:14.203Z,15.83
2018-09-19T16:13:18.752Z,18.10
2018-09-19T16:16:23.156Z,12.03
2018-09-19T16:19:27.736Z,13.23
2018-09-19T16:22:32.920Z,18.70
2018-09-19T16:26:59.099Z,12.87
2018-09-19T16:30:02.208Z,19.57
2018-09-19T16:33:05.328Z,19.93
2018-09-19T16:36:08.376Z,15.32
2018-09-19T16:39:12.564Z,13.17
2018-09-19T16:42:15.803Z,19.57
2018-09-19T16:45:18.906Z,21.23
2018-09-19T16:48:21.925Z,15.03
2018-09-19T16:51:24.964Z,13.30
2018-09-19T16:54:29.096Z,16.73
2018-09-19T16:57:32.178Z,12.70
2018-09-19T17:00:35.259Z,16.53
2018-09-19T17:03:38.302Z,16.57
2018-09-19T17:06:41.374Z,16.10
2018-09-19T17:09:44.417Z,13.50
2018-09-19T17:12:47.447Z,16.50
2018-09-19T17:15:50.567Z,13.63
2018-09-19T17:18:53.647Z,16.83
2018-09-19T17:21:56.983Z,22.47
2018-09-19T17:25:00.090Z,16.00
2018-09-19T17:28:04.715Z,12.10
2018-09-19T17:31:07.964Z,13.80
2018-09-19T17:34:11.108Z,14.40
2018-09-19T17:37:14.239Z,14.20
2018-09-19T17:40:17.290Z,25.70
2018-09-19T17:43:20.546Z,17.77
2018-09-19T17:46:23.660Z,17.63
2018-09-19T17:49:26.695Z,16.87
2018-09-19T17:52:29.744Z,13.23
2018-09-19T17:55:32.968Z,21.93
2018-09-19T17:58:37.260Z,14.03
2018-09-19T18:01:40.335Z,14.97
2018-09-19T18:04:43.368Z,15.20
2018-09-19T18:07:46.532Z,10.03
2018-09-19T18:10:49.689Z,13.43
2018-09-19T18:13:56.465Z,10.90
2018-09-19T18:16:59.788Z,14.23
2018-09-19T18:20:04.533Z,12.90
2018-09-19T18:23:07.667Z,11.67
2018-09-19T18:26:10.779Z,11.97
2018-09-19T18:29:14.101Z,13.53
2018-09-19T18:32:17.220Z,17.43
2018-09-19T18:35:20.380Z,15.13
2018-09-19T18:38:23.423Z,17.57
2018-09-19T18:41:26.571Z,14.37
2018-09-19T18:44:29.735Z,15.47
2018-09-19T18:47:32.892Z,16.07
2018-09-19T18:50:35.935Z,11.33
2018-09-19T18:53:39.019Z,14.87
2018-09-19T18:56:42.071Z,15.07
2018-09-19T18:59:45.167Z,15.03
2018-09-19T19:02:48.220Z,13.50
2018-09-19T19:05:51.247Z,21.90
2018-09-19T19:08:54.291Z,26.20
2018-09-19T19:11:57.394Z,21.53
2018-09-19T19:15:00.944Z,31.07
2018-09-19T19:18:04.059Z,45.00
2018-09-19T19:21:07.131Z,44.70
2018-09-19T19:24:10.215Z,50.87
2018-09-19T19:27:13.278Z,49.40
2018-09-19T19:30:16.384Z,50.73
2018-09-19T19:33:19.436Z,59.60
2018-09-19T19:36:22.467Z,64.70
2018-09-19T19:39:25.504Z,57.93
2018-09-19T19:42:28.555Z,62.03
2018-09-19T19:45:31.724Z,63.37
2018-09-19T19:48:34.825Z,56.77
2018-09-19T19:51:37.860Z,61.83
2018-09-19T19:54:40.893Z,68.73
2018-09-19T19:57:44.008Z,64.23
2018-09-19T20:00:47.056Z,64.50
2018-09-19T20:03:50.148Z,53.67
2018-09-19T20:06:53.327Z,62.50
2018-09-19T20:09:56.383Z,58.27
2018-09-19T20:12:59.503Z,59.33
2018-09-19T20:16:02.565Z,62.67
2018-09-19T20:19:07.676Z,55.83
2018-09-19T20:22:11.263Z,57.57
2018-09-19T20:25:14.341Z,47.70
2018-09-19T20:28:17.396Z,56.13
2018-09-19T20:31:20.447Z,44.67
2018-09-19T20:34:23.488Z,44.53
2018-09-19T20:37:26.529Z,47.13
2018-09-19T20:40:29.566Z,47.13
2018-09-19T20:43:32.790Z,49.57
2018-09-19T20:46:35.865Z,46.57
2018-09-19T20:49:38.920Z,45.57
2018-09-19T20:52:42.000Z,39.60
2018-09-19T20:55:45.063Z,39.37
2018-09-19T20:58:48.157Z,43.67
2018-09-19T21:01:51.250Z,43.43
2018-09-19T21:04:54.321Z,37.33
2018-09-19T21:07:57.663Z,36.83
2018-09-19T21:11:00.860Z,38.80
2018-09-19T21:14:04.059Z,40.90
2018-09-19T21:17:07.105Z,44.93
2018-09-19T21:20:10.339Z,39.77
2018-09-19T21:23:13.560Z,49.77
2018-09-19T21:26:16.701Z,34.23
2018-09-19T21:29:19.830Z,33.87
2018-09-19T21:32:23.005Z,35.03
2018-09-19T21:35:27.012Z,35.50
2018-09-19T21:38:30.064Z,37.30
2018-09-19T21:41:33.139Z,32.07
2018-09-19T21:44:36.183Z,35.57
2018-09-19T21:47:39.216Z,29.53
2018-09-19T21:50:42.559Z,27.33
2018-09-19T21:53:45.597Z,29.10
2018-09-19T21:56:48.627Z,31.23
2018-09-19T21:59:53.484Z,29.77
2018-09-19T22:02:56.734Z,30.90
2018-09-19T22:05:59.807Z,32.70
2018-09-19T22:09:02.999Z,24.97
2018-09-19T22:12:09.530Z,25.87
2018-09-19T22:15:12.568Z,29.67
2018-09-19T22:18:15.607Z,32.23
2018-09-19T22:21:18.734Z,30.20
2018-09-19T22:24:21.843Z,27.63
2018-09-19T22:27:25.022Z,29.20
2018-09-19T22:30:28.007Z,29.03
2018-09-19T22:33:31.148Z,33.77
2018-09-19T22:36:34.208Z,28.07
2018-09-19T22:39:37.247Z,31.80
2018-09-19T22:42:40.371Z,27.73
2018-09-19T22:45:43.407Z,29.67
2018-09-19T22:48:46.819Z,25.40
2018-09-19T22:51:49.891Z,27.90
2018-09-19T22:54:52.928Z,35.93
2018-09-19T22:57:55.996Z,29.17
2018-09-19T23:00:59.647Z,28.50
2018-09-19T23:04:02.688Z,28.57
2018-09-19T23:07:05.751Z,31.57
2018-09-19T23:10:08.785Z,25.60
2018-09-19T23:13:11.919Z,28.00
2018-09-19T23:16:15.021Z,30.73
2018-09-19T23:19:18.127Z,32.33
2018-09-19T23:22:22.311Z,26.37
2018-09-19T23:25:25.335Z,22.83
2018-09-19T23:28:28.375Z,19.03
2018-09-19T23:31:31.427Z,27.17
2018-09-19T23:34:34.622Z,23.67
2018-09-19T23:37:37.654Z,20.83
2018-09-19T23:40:40.692Z,23.13
2018-09-19T23:43:43.832Z,24.67
2018-09-19T23:46:46.851Z,22.47
2018-09-19T23:49:49.895Z,19.07
2018-09-19T23:52:52.931Z,24.47
2018-09-19T23:55:55.992Z,24.20
2018-09-19T23:58:59.030Z,19.87
